Time;durP1;ratioP1;P1;durP2;ratioP2;P2;SDS_P1;SDS_P2;PMS_P1;PMS_P2;Temp;Humidity;BMP_temperature;BMP_pressure;BME280_temperature;BME280_humidity;BME280_pressure;Samples;Min_cycle;Max_cycle;Signal;HPM_P1;HPM_P2
2022/04/11 00:00:58;;;;;;;23.85;2.15;;;;;;;19.70;48.71;99831.38;7314273;19;130783;-38
2022/04/11 00:03:24;;;;;;;21.77;1.93;;;;;;;19.75;48.80;99824.00;7312763;19;151792;-37
2022/04/11 00:05:49;;;;;;;18.13;1.77;;;;;;;19.75;47.90;99829.22;7313378;19;130815;-37
2022/04/11 00:08:14;;;;;;;21.40;2.00;;;;;;;19.75;48.01;99827.44;7308747;19;153999;-37
2022/04/11 00:10:40;;;;;;;24.45;2.47;;;;;;;19.78;47.78;99824.59;7314452;19;134590;-38
2022/04/11 00:13:07;;;;;;;9.10;1.13;;;;;;;19.69;47.78;99803.59;7313503;19;158129;-37
2022/04/11 00:15:34;;;;;;;34.75;3.33;;;;;;;19.82;48.37;99817.31;7314712;19;129674;-37
2022/04/11 00:18:02;;;;;;;;;;;;;;;19.80;48.06;99821.88;7313709;19;129843;-38
2022/04/11 00:20:27;;;;;;;;;;;;;;;19.81;48.12;99816.53;7313799;19;129004;-37
2022/04/11 00:22:52;;;;;;;27.27;2.35;;;;;;;19.83;47.89;99809.41;7312014;19;129151;-38
2022/04/11 00:25:18;;;;;;;28.88;2.83;;;;;;;19.87;47.87;99812.56;7314235;19;129477;-38
2022/04/11 00:27:43;;;;;;;34.08;3.45;;;;;;;19.85;47.89;99814.50;7312975;19;129184;-37
2022/04/11 00:30:09;;;;;;;8.13;0.95;;;;;;;19.87;48.10;99817.78;7311512;19;157504;-38
2022/04/11 00:32:41;;;;;;;23.13;2.17;;;;;;;20.01;47.97;99810.53;7313305;19;131300;-38
2022/04/11 00:35:08;;;;;;;17.23;1.55;;;;;;;20.04;48.28;99809.44;7314570;19;129082;-38
2022/04/11 00:37:34;;;;;;;23.55;2.03;;;;;;;20.00;49.58;99816.69;7311750;19;129524;-37
2022/04/11 00:40:00;;;;;;;12.17;1.23;;;;;;;20.01;49.66;99817.53;7314522;19;130712;-37
2022/04/11 00:42:28;;;;;;;15.18;1.40;;;;;;;20.00;50.34;99814.06;7312031;19;130660;-37
2022/04/11 00:44:54;;;;;;;18.52;1.67;;;;;;;19.98;50.35;99812.56;7313237;19;128921;-38
2022/04/11 00:47:19;;;;;;;20.25;1.85;;;;;;;19.96;50.74;99814.47;7311854;19;141100;-38
2022/04/11 00:49:46;;;;;;;28.55;2.88;;;;;;;19.97;50.99;99813.50;7310041;19;157128;-38
2022/04/11 00:52:12;;;;;;;25.02;2.40;;;;;;;19.97;50.37;99816.94;7314163;19;129012;-37
2022/04/11 00:54:39;;;;;;;26.50;2.50;;;;;;;19.96;50.88;99817.06;7314993;19;130382;-37
2022/04/11 00:57:05;;;;;;;19.73;2.00;;;;;;;19.96;50.84;99806.63;7312437;19;129201;-38
2022/04/11 00:59:31;;;;;;;25.60;2.38;;;;;;;19.96;50.71;99806.63;7314628;19;130439;-38
2022/04/11 01:01:56;;;;;;;20.63;2.05;;;;;;;19.76;49.16;99820.44;7313560;19;130448;-37
2022/04/11 01:04:24;;;;;;;14.98;1.30;;;;;;;19.70;49.28;99815.72;7312658;19;154413;-37
2022/04/11 01:06:56;;;;;;;10.10;1.17;;;;;;;19.65;48.93;99810.84;7311061;19;129106;-37
2022/04/11 01:09:26;;;;;;;17.15;1.45;;;;;;;19.78;48.38;99821.16;7311065;19;130686;-37
2022/04/11 01:11:52;;;;;;;18.05;1.70;;;;;;;19.81;48.18;99823.50;7311829;19;129530;-38
2022/04/11 01:14:17;;;;;;;18.08;1.63;;;;;;;19.78;48.25;99828.97;7312124;19;128976;-37
2022/04/11 01:16:50;;;;;;;19.42;1.85;;;;;;;19.81;48.29;99826.13;7312377;19;129170;-37
2022/04/11 01:19:16;;;;;;;8.77;1.08;;;;;;;19.78;48.46;99818.53;7311952;19;131701;-37
2022/04/11 01:21:42;;;;;;;32.00;2.80;;;;;;;19.83;48.10;99827.66;7312237;19;129162;-37
2022/04/11 01:24:08;;;;;;;30.65;2.90;;;;;;;19.82;48.61;99830.38;7309290;19;129395;-37
2022/04/11 01:26:33;;;;;;;28.35;2.60;;;;;;;19.85;48.36;99824.94;7311318;19;154198;-38
2022/04/11 01:28:58;;;;;;;15.15;1.42;;;;;;;19.84;48.17;99828.47;7310137;19;129962;-37
2022/04/11 01:31:25;;;;;;;20.15;1.75;;;;;;;19.90;48.20;99828.00;7310859;19;159177;-38
2022/04/11 01:33:51;;;;;;;20.27;1.63;;;;;;;19.88;48.08;99829.91;7314098;19;129187;-38
2022/04/11 01:36:16;;;;;;;21.38;2.00;;;;;;;19.89;48.06;99831.56;7311319;19;128908;-37
2022/04/11 01:38:41;;;;;;;25.52;2.35;;;;;;;19.87;47.97;99826.47;7310274;19;129223;-37
2022/04/11 01:41:07;;;;;;;11.03;1.20;;;;;;;19.89;47.76;99831.56;7310507;19;157597;-37
2022/04/11 01:43:32;;;;;;;18.55;1.60;;;;;;;20.13;47.71;99835.63;7312812;19;128918;-38
2022/04/11 01:45:57;;;;;;;12.32;1.05;;;;;;;20.05;48.54;99822.34;7311072;19;154631;-38
2022/04/11 01:48:22;;;;;;;19.60;1.85;;;;;;;20.02;49.42;99838.28;7307248;19;158205;-37
2022/04/11 01:50:48;;;;;;;17.88;1.85;;;;;;;20.03;49.81;99834.69;7311546;19;149234;-37
2022/04/11 01:53:17;;;;;;;32.25;3.08;;;;;;;19.97;50.22;99834.38;7312005;19;129365;-38
2022/04/11 01:55:42;;;;;;;17.35;1.67;;;;;;;19.97;50.05;99835.22;7312456;19;129428;-37
2022/04/11 01:58:09;;;;;;;29.75;2.85;;;;;;;19.99;49.75;99845.53;7309013;19;130176;-38
2022/04/11 02:00:35;;;;;;;17.23;1.60;;;;;;;20.00;50.17;99841.97;7312883;19;129520;-37
2022/04/11 02:03:01;;;;;;;17.67;1.53;;;;;;;20.02;49.84;99848.72;7310948;19;129420;-39
2022/04/11 02:05:27;;;;;;;41.20;3.93;;;;;;;19.98;50.40;99841.25;7309177;19;129825;-37
2022/04/11 02:07:54;;;;;;;20.73;1.95;;;;;;;20.01;50.00;99847.06;7308653;19;129227;-37
2022/04/11 02:10:20;;;;;;;18.85;1.85;;;;;;;19.97;50.08;99837.81;7308608;19;131111;-37
2022/04/11 02:12:47;;;;;;;15.77;1.65;;;;;;;19.69;48.91;99842.75;7311695;19;129422;-37
2022/04/11 02:15:13;;;;;;;32.10;2.95;;;;;;;19.68;49.32;99843.69;7309146;19;129113;-38
2022/04/11 02:17:38;;;;;;;18.55;1.95;;;;;;;19.64;48.68;99842.28;7306864;19;129287;-37
2022/04/11 02:20:05;;;;;;;18.23;1.70;;;;;;;19.61;49.14;99832.09;7309541;19;159137;-38
2022/04/11 02:22:45;;;;;;;18.20;1.70;;;;;;;19.75;48.54;99844.88;7312023;19;129065;-37
2022/04/11 02:25:11;;;;;;;17.75;1.85;;;;;;;19.74;48.49;99844.03;7311673;19;129324;-37
2022/04/11 02:27:36;;;;;;;16.42;1.63;;;;;;;19.73;48.35;99836.34;7311836;19;129485;-37
2022/04/11 02:30:03;;;;;;;22.48;1.92;;;;;;;19.76;47.75;99838.69;7314536;19;129766;-37
2022/04/11 02:32:28;;;;;;;;;;;;;;;19.78;47.98;99836.81;7318573;19;132593;-38
2022/04/11 02:34:54;;;;;;;20.97;1.70;;;;;;;19.80;48.20;99842.75;7315935;19;154175;-38
2022/04/11 02:37:19;;;;;;;17.37;1.73;;;;;;;19.81;48.22;99839.16;7314599;19;159005;-37
2022/04/11 02:39:44;;;;;;;28.58;2.47;;;;;;;19.86;48.09;99842.25;7318693;19;130551;-37
2022/04/11 02:42:09;;;;;;;13.65;1.27;;;;;;;19.81;48.11;99837.41;7316119;19;152797;-38
2022/04/11 02:44:35;;;;;;;20.93;1.90;;;;;;;19.83;47.90;99839.88;7316836;19;146836;-37
2022/04/11 02:47:00;;;;;;;36.17;3.33;;;;;;;19.85;48.09;99836.19;7313565;19;158481;-37
2022/04/11 02:49:25;;;;;;;22.27;2.05;;;;;;;19.89;47.74;99847.19;7316083;19;130854;-38
2022/04/11 02:51:50;;;;;;;25.07;2.23;;;;;;;20.08;48.12;99836.97;7315478;19;155080;-37
2022/04/11 02:54:16;;;;;;;14.40;1.27;;;;;;;20.06;48.70;99831.03;7314825;19;154913;-38
2022/04/11 02:56:41;;;;;;;16.93;1.77;;;;;;;20.03;49.04;99836.50;7313234;19;158471;-38
2022/04/11 02:59:06;;;;;;;18.43;1.73;;;;;;;20.00;49.30;99840.16;7313430;19;158438;-38
2022/04/11 03:01:31;;;;;;;22.70;2.20;;;;;;;20.00;49.40;99840.16;7315125;19;154580;-38
2022/04/11 03:03:57;;;;;;;12.13;1.03;;;;;;;19.97;50.15;99839.59;7316958;19;153744;-38
2022/04/11 03:06:22;;;;;;;20.98;1.75;;;;;;;19.98;49.80;99825.59;7316055;19;133157;-38
2022/04/11 03:08:47;;;;;;;6.80;1.00;;;;;;;19.97;49.86;99826.53;7316117;19;129760;-37
2022/04/11 03:11:13;;;;;;;23.03;2.17;;;;;;;19.97;49.98;99826.53;7316187;19;153657;-38
2022/04/11 03:13:38;;;;;;;29.65;3.00;;;;;;;19.85;50.58;99812.69;7315168;19;153992;-37
2022/04/11 03:16:03;;;;;;;30.25;2.83;;;;;;;19.98;50.10;99836.84;7313122;19;148844;-37
2022/04/11 03:18:29;;;;;;;16.25;1.50;;;;;;;19.96;51.28;99832.72;7311457;19;130454;-37
2022/04/11 03:20:54;;;;;;;15.67;1.47;;;;;;;19.70;49.05;99836.59;7315054;19;154918;-37
2022/04/11 03:23:19;;;;;;;15.33;1.43;;;;;;;19.68;49.32;99833.25;7314824;19;154102;-38
2022/04/11 03:25:44;;;;;;;26.77;2.60;;;;;;;19.72;48.59;99838.09;7313982;19;158099;-38
2022/04/11 03:28:10;;;;;;;16.20;1.63;;;;;;;19.72;48.99;99837.31;7312009;19;159577;-37
2022/04/11 03:30:35;;;;;;;33.93;3.27;;;;;;;19.71;48.40;99833.00;7311919;19;155308;-38
2022/04/11 03:33:00;;;;;;;3.50;0.47;;;;;;;19.74;48.62;99835.38;7315407;19;153987;-37
2022/04/11 03:35:25;;;;;;;36.63;3.20;;;;;;;19.66;48.20;99820.34;7312578;19;158640;-37
2022/04/11 03:37:51;;;;;;;23.85;2.00;;;;;;;19.82;48.17;99832.97;7308545;19;158285;-37
2022/04/11 03:40:16;;;;;;;23.58;2.17;;;;;;;19.82;47.92;99835.59;7309907;19;154394;-38
2022/04/11 03:42:41;;;;;;;35.08;3.50;;;;;;;19.84;48.29;99831.09;7314291;19;154660;-37
2022/04/11 03:45:10;;;;;;;12.30;1.30;;;;;;;19.83;47.51;99837.25;7315316;19;130774;-37
2022/04/11 03:47:36;;;;;;;25.80;2.40;;;;;;;19.82;47.85;99822.53;7311829;19;129610;-38
2022/04/11 03:50:01;;;;;;;14.55;1.40;;;;;;;19.85;48.19;99832.75;7312917;19;130245;-37
2022/04/11 03:52:27;;;;;;;19.30;1.67;;;;;;;20.07;47.81;99827.44;7315235;19;130426;-38
2022/04/11 03:54:52;;;;;;;12.52;1.33;;;;;;;20.02;48.63;99827.00;7314880;19;129141;-37
2022/04/11 03:57:17;;;;;;;14.35;1.23;;;;;;;20.00;49.39;99821.09;7311537;19;159208;-38
2022/04/11 03:59:42;;;;;;;26.73;2.60;;;;;;;20.00;50.17;99816.69;7311294;19;144722;-38
2022/04/11 04:02:08;;;;;;;40.47;3.63;;;;;;;19.98;50.10;99815.16;7312721;19;154325;-37
2022/04/11 04:04:33;;;;;;;32.25;3.22;;;;;;;19.98;50.36;99817.78;7311328;19;130510;-37
2022/04/11 04:06:59;;;;;;;19.42;1.85;;;;;;;19.93;50.73;99812.09;7308599;19;130381;-37
2022/04/11 04:09:24;;;;;;;21.08;1.70;;;;;;;19.94;50.83;99813.75;7311017;19;154820;-34
2022/04/11 04:11:49;;;;;;;6.33;0.67;;;;;;;19.98;50.70;99815.97;7312815;19;154104;-32
2022/04/11 04:14:14;;;;;;;18.00;1.50;;;;;;;20.01;50.43;99820.13;7312067;19;129482;-37
2022/04/11 04:16:40;;;;;;;19.05;1.65;;;;;;;19.99;50.87;99816.81;7311525;19;158739;-32
2022/04/11 04:19:05;;;;;;;15.77;1.37;;;;;;;19.98;50.88;99809.94;7308008;19;148888;-33
2022/04/11 04:21:30;;;;;;;27.45;2.05;;;;;;;19.82;49.88;99819.94;7316205;19;129083;-31
2022/04/11 04:23:56;;;;;;;17.60;1.80;;;;;;;19.68;49.62;99822.84;7311456;19;129948;-32
2022/04/11 04:26:21;;;;;;;19.40;1.47;;;;;;;19.67;49.07;99824.59;7313869;19;159317;-39
2022/04/11 04:28:46;;;;;;;55.20;4.33;;;;;;;19.71;48.36;99825.19;7310669;19;154396;-33
2022/04/11 04:31:11;;;;;;;24.60;2.07;;;;;;;19.73;48.24;99833.72;7312483;19;152989;-34
2022/04/11 04:33:37;;;;;;;24.27;1.80;;;;;;;19.73;48.68;99826.75;7314838;19;157929;-35
2022/04/11 04:36:02;;;;;;;34.70;2.70;;;;;;;19.82;47.98;99835.59;7310625;19;160007;-35
2022/04/11 04:38:27;;;;;;;19.60;1.65;;;;;;;19.81;47.94;99828.72;7314431;19;130748;-38
2022/04/11 04:40:52;;;;;;;22.77;1.80;;;;;;;19.85;47.90;99827.53;7310213;19;129575;-38
2022/04/11 04:43:18;;;;;;;32.27;2.67;;;;;;;19.80;47.69;99829.69;7312501;19;159325;-41
2022/04/11 04:45:43;;;;;;;30.87;2.57;;;;;;;19.81;48.27;99836.56;7310693;19;158482;-41
2022/04/11 04:48:09;;;;;;;22.75;1.85;;;;;;;19.82;48.09;99825.16;7312584;19;146629;-40
2022/04/11 04:50:34;;;;;;;23.38;1.83;;;;;;;19.84;47.80;99831.09;7309291;19;153268;-40
2022/04/11 04:52:59;;;;;;;17.10;1.27;;;;;;;19.85;47.89;99835.38;7312028;19;159146;-40
2022/04/11 04:55:24;;;;;;;41.38;3.53;;;;;;;20.02;48.24;99827.84;7309787;19;158880;-39
2022/04/11 04:57:50;;;;;;;12.27;1.13;;;;;;;19.97;48.95;99829.97;7312608;19;129187;-38
2022/04/11 05:00:16;;;;;;;37.70;3.30;;;;;;;19.93;49.14;99827.75;7310768;19;148096;-41
2022/04/11 05:02:43;;;;;;;41.50;3.13;;;;;;;19.94;49.52;99829.41;7312064;19;131535;-40
2022/04/11 05:05:10;;;;;;;17.90;1.38;;;;;;;19.84;49.71;99818.03;7313185;19;130808;-40
2022/04/11 05:07:36;;;;;;;54.63;4.30;;;;;;;19.92;50.50;99831.28;7307198;19;130489;-39
2022/04/11 05:10:05;;;;;;;35.90;2.78;;;;;;;19.88;50.62;99829.91;7305219;19;129020;-41
2022/04/11 05:12:46;;;;;;;31.30;2.40;;;;;;;19.92;51.80;99831.28;7308531;19;130811;-36
2022/04/11 05:15:12;;;;;;;30.63;2.40;;;;;;;19.93;50.82;99832.97;7307609;19;130417;-36
2022/04/11 05:17:37;;;;;;;28.48;2.05;;;;;;;19.91;50.84;99838.31;7307713;19;129321;-39
2022/04/11 05:20:05;;;;;;;20.42;1.60;;;;;;;19.90;51.85;99839.25;7307667;19;132169;-39
2022/04/11 05:22:30;;;;;;;31.35;2.35;;;;;;;19.91;52.01;99835.72;7309638;19;129469;-39
2022/04/11 05:24:56;;;;;;;10.57;1.20;;;;;;;19.70;49.51;99841.81;7312238;19;159350;-39
2022/04/11 05:27:21;;;;;;;25.08;2.17;;;;;;;19.67;49.23;99837.66;7313131;19;129113;-38
2022/04/11 05:29:47;;;;;;;18.30;1.63;;;;;;;19.76;49.79;99842.16;7310133;19;154679;-37
2022/04/11 05:32:12;;;;;;;12.40;1.13;;;;;;;19.77;49.40;99837.72;7309979;19;158471;-37
2022/04/11 05:34:37;;;;;;;26.53;2.47;;;;;;;19.78;48.81;99839.41;7310940;19;158373;-38
2022/04/11 05:37:02;;;;;;;25.13;2.53;;;;;;;19.82;48.88;99839.03;7310486;19;129122;-37
2022/04/11 05:39:30;;;;;;;28.05;2.75;;;;;;;19.81;48.17;99837.41;7311102;19;129509;-37
2022/04/11 05:41:55;;;;;;;33.38;3.20;;;;;;;19.84;48.03;99844.13;7310192;19;130209;-38
2022/04/11 05:44:20;;;;;;;34.55;3.20;;;;;;;19.83;48.35;99839.88;7310351;19;159370;-38
2022/04/11 05:46:52;;;;;;;31.15;2.67;;;;;;;19.76;48.19;99823.03;7311980;19;130144;-38
2022/04/11 05:49:18;;;;;;;23.05;2.17;;;;;;;19.83;48.17;99847.69;7309422;19;128950;-39
2022/04/11 05:51:43;;;;;;;24.40;2.35;;;;;;;19.82;47.81;99841.66;7312210;19;130863;-40
2022/04/11 05:54:08;;;;;;;19.37;2.03;;;;;;;19.85;47.55;99840.59;7307703;19;158588;-40
2022/04/11 05:56:33;;;;;;;73.07;6.43;;;;;;;19.98;48.40;99849.09;7301698;19;154850;-40
2022/04/11 05:58:58;;;;;;;41.53;3.50;;;;;;;20.07;48.10;99843.13;7295385;19;149256;-40
2022/04/11 06:01:24;;;;;;;57.57;5.60;;;;;;;20.03;49.32;99845.13;7294425;19;158357;-39
2022/04/11 06:03:49;;;;;;;24.45;2.28;;;;;;;19.97;49.85;99850.03;7318920;19;130409;-37
2022/04/11 06:06:15;;;;;;;21.77;2.28;;;;;;;19.96;50.06;99853.59;7313789;19;154479;-37
2022/04/11 06:08:40;;;;;;;28.92;2.70;;;;;;;19.97;50.53;99855.25;7318657;19;128995;-39
2022/04/11 06:11:06;;;;;;;24.27;2.63;;;;;;;19.94;50.65;99855.50;7312508;19;130189;-40
2022/04/11 06:13:31;;;;;;;18.42;1.98;;;;;;;19.90;50.79;99854.09;7317028;19;153718;-40
2022/04/11 06:15:58;;;;;;;22.48;2.08;;;;;;;19.91;50.68;99853.13;7316204;19;154585;-40
2022/04/11 06:18:23;;;;;;;23.67;2.03;;;;;;;19.92;50.88;99852.16;7317347;19;129320;-38
2022/04/11 06:20:49;;;;;;;34.38;3.17;;;;;;;19.88;51.08;99853.38;7314249;19;158635;-37
2022/04/11 06:23:15;;;;;;;27.00;2.53;;;;;;;19.84;50.67;99841.53;7316901;19;130556;-39
2022/04/11 06:25:40;;;;;;;41.33;3.83;;;;;;;19.89;50.95;99852.41;7314569;19;130066;-36
2022/04/11 06:28:05;;;;;;;28.63;2.55;;;;;;;19.69;49.16;99846.19;7314984;19;153158;-41
2022/04/11 06:30:31;;;;;;;34.33;3.25;;;;;;;19.76;48.69;99854.34;7314041;19;130041;-37
2022/04/11 06:32:56;;;;;;;21.00;2.10;;;;;;;19.79;48.69;99857.53;7315785;19;158450;-37
2022/04/11 06:35:21;;;;;;;35.90;3.40;;;;;;;19.80;48.42;99853.16;7315075;19;154457;-39
2022/04/11 06:37:46;;;;;;;26.33;2.43;;;;;;;19.79;47.95;99851.50;7315350;19;153927;-37
2022/04/11 06:40:12;;;;;;;57.38;5.00;;;;;;;19.81;48.39;99854.81;7314263;19;132427;-37
2022/04/11 06:42:37;;;;;;;30.52;2.88;;;;;;;19.85;47.77;99857.06;7315022;19;130776;-38
2022/04/11 06:45:04;;;;;;;29.33;2.87;;;;;;;19.77;48.33;99843.78;7316056;19;148829;-40
2022/04/11 06:47:29;;;;;;;20.58;1.98;;;;;;;19.87;48.07;99860.38;7316098;19;130769;-37
2022/04/11 06:49:55;;;;;;;28.77;2.95;;;;;;;19.88;48.15;99858.59;7312520;19;150592;-41
2022/04/11 06:52:20;;;;;;;20.90;1.95;;;;;;;19.90;47.51;99864.53;7313606;19;158874;-37
2022/04/11 06:54:45;;;;;;;27.80;2.53;;;;;;;19.83;47.48;99853.75;7315364;19;141589;-38
2022/04/11 06:57:11;;;;;;;20.97;2.43;;;;;;;19.92;47.95;99867.81;7313283;19;154170;-39
2022/04/11 06:59:36;;;;;;;39.22;3.28;;;;;;;20.09;47.95;99857.72;7312809;19;130072;-36
2022/04/11 07:02:01;;;;;;;28.40;2.63;;;;;;;20.00;48.93;99860.25;7311201;19;158888;-41
2022/04/11 07:04:26;;;;;;;26.98;2.22;;;;;;;19.97;49.95;99860.47;7315455;19;136011;-38
2022/04/11 07:06:52;;;;;;;44.08;3.95;;;;;;;19.97;50.39;99860.47;7309344;19;154333;-40
2022/04/11 07:09:17;;;;;;;25.53;2.73;;;;;;;19.95;50.67;99857.16;7306862;19;158295;-40
2022/04/11 07:11:42;;;;;;;30.77;3.07;;;;;;;19.92;50.34;99863.44;7310937;19;136030;-40
2022/04/11 07:14:08;;;;;;;32.22;3.05;;;;;;;19.94;50.56;99863.31;7314083;19;144074;-31
2022/04/11 07:16:33;;;;;;;24.45;2.20;;;;;;;19.92;50.97;99862.59;7314882;19;129072;-35
2022/04/11 07:18:58;;;;;;;25.42;2.35;;;;;;;19.90;51.24;99865.34;7311586;19;158518;-35
2022/04/11 07:21:23;;;;;;;76.30;6.72;;;;;;;19.91;50.85;99868.78;7310392;19;151939;-34
2022/04/11 07:23:49;;;;;;;24.00;2.03;;;;;;;19.94;50.95;99866.78;7313963;19;129163;-37
2022/04/11 07:26:14;;;;;;;86.65;7.68;;;;;;;19.94;50.60;99876.38;7311085;19;154164;-44
2022/04/11 07:28:40;;;;;;;55.22;4.82;;;;;;;19.82;50.59;99887.78;7308288;19;156902;-40
2022/04/11 07:31:05;;;;;;;23.67;2.15;;;;;;;19.66;49.24;99880.34;7311172;19;130431;-34
2022/04/11 07:33:31;;;;;;;35.60;3.05;;;;;;;19.67;49.07;99879.38;7313090;19;130225;-41
2022/04/11 07:35:56;;;;;;;3.67;0.82;;;;;;;19.73;48.46;99884.13;7316659;19;129204;-30
2022/04/11 07:38:21;;;;;;;29.13;2.67;;;;;;;19.73;49.20;99878.91;7312057;19;159089;-41
2022/04/11 07:40:47;;;;;;;26.47;2.27;;;;;;;19.76;48.68;99877.81;7310438;19;159310;-32
2022/04/11 07:43:13;;;;;;;28.50;2.73;;;;;;;19.78;48.73;99876.78;7315315;19;130916;-36
2022/04/11 07:45:38;;;;;;;28.38;2.45;;;;;;;19.79;48.41;99882.78;7311655;19;154087;-31
2022/04/11 07:48:04;;;;;;;88.47;7.82;;;;;;;19.79;47.85;99878.41;7311369;19;158310;-38
2022/04/11 07:50:29;;;;;;;54.33;4.38;;;;;;;19.82;48.20;99874.72;7310725;19;129336;-32
2022/04/11 07:52:54;;;;;;;34.10;2.92;;;;;;;19.86;47.58;99878.75;7311197;19;142760;-37
2022/04/11 07:55:20;;;;;;;27.83;2.85;;;;;;;19.82;48.28;99872.94;7304050;19;154082;-39
2022/04/11 07:57:45;;;;;;;34.92;2.92;;;;;;;19.87;47.45;99880.41;7312900;19;129965;-33
2022/04/11 08:00:11;;;;;;;27.52;2.38;;;;;;;19.88;47.64;99877.72;7313099;19;130277;-35
2022/04/11 08:02:37;;;;;;;41.67;3.65;;;;;;;19.86;47.79;99878.75;7312732;19;129891;-40
2022/04/11 08:05:07;;;;;;;37.35;3.08;;;;;;;19.95;48.03;99872.81;7312957;19;129663;-32
2022/04/11 08:07:33;;;;;;;39.75;3.40;;;;;;;19.92;48.26;99868.66;7313278;19;129250;-36
2022/04/11 08:09:59;;;;;;;16.30;1.77;;;;;;;19.94;48.89;99878.97;7310503;19;130284;-38
2022/04/11 08:12:24;;;;;;;30.93;2.60;;;;;;;19.93;50.16;99880.75;7313717;19;129409;-37
2022/04/11 08:14:50;;;;;;;28.92;2.75;;;;;;;19.96;50.10;99875.31;7312457;19;153947;-38
2022/04/11 08:17:15;;;;;;;28.87;2.70;;;;;;;19.93;49.82;99880.75;7310476;19;158853;-35
2022/04/11 08:19:40;;;;;;;41.30;3.70;;;;;;;19.93;50.41;99874.72;7308852;19;159111;-41
2022/04/11 08:22:06;;;;;;;39.05;3.08;;;;;;;19.95;50.41;99875.44;7312382;19;154275;-34
2022/04/11 08:24:32;;;;;;;26.35;2.42;;;;;;;19.92;50.67;99879.09;7310680;19;129443;-36
2022/04/11 08:26:58;;;;;;;17.77;1.67;;;;;;;19.91;51.36;99876.63;7310776;19;130204;-39
2022/04/11 08:29:24;;;;;;;19.80;1.73;;;;;;;19.93;50.66;99879.94;7309440;19;130625;-33
2022/04/11 08:31:49;;;;;;;33.00;2.97;;;;;;;19.80;51.32;99861.00;7314101;19;129843;-32
2022/04/11 08:34:15;;;;;;;19.40;1.70;;;;;;;19.89;50.89;99868.06;7313981;19;151648;-39
2022/04/11 08:36:40;;;;;;;31.45;2.78;;;;;;;19.66;49.79;99876.88;7310711;19;137537;-38
2022/04/11 08:39:05;;;;;;;38.37;3.40;;;;;;;19.68;48.56;99872.38;7308387;19;158805;-37
2022/04/11 08:41:34;;;;;;;31.83;2.63;;;;;;;19.74;48.68;99875.34;7310969;19;130725;-43
2022/04/11 08:44:04;;;;;;;24.40;2.03;;;;;;;19.77;48.81;99876.88;7312315;19;129297;-40
2022/04/11 08:46:31;;;;;;;20.27;1.65;;;;;;;19.72;48.65;99876.44;7311209;19;130282;-34
2022/04/11 08:48:58;;;;;;;26.50;2.33;;;;;;;19.75;48.02;99866.56;7310976;19;130865;-34
2022/04/11 08:51:23;;;;;;;39.40;3.25;;;;;;;19.77;48.46;99869.03;7308938;19;129118;-41
2022/04/11 08:53:50;;;;;;;35.53;2.95;;;;;;;19.81;48.20;99875.69;7310256;19;130350;-41
2022/04/11 08:56:16;;;;;;;;;;;;;;;19.82;47.59;99872.94;7310849;19;129268;-40
2022/04/11 08:58:41;;;;;;;36.43;3.20;;;;;;;19.80;48.18;99869.63;7307874;19;157405;-34
2022/04/11 09:01:06;;;;;;;24.25;2.05;;;;;;;19.83;48.05;99868.56;7309527;19;154388;-39
2022/04/11 09:03:31;;;;;;;30.75;2.75;;;;;;;20.03;48.30;99865.22;7310379;19;154212;-37
2022/04/11 09:06:05;;;;;;;18.08;2.05;;;;;;;19.95;48.24;99851.94;7308817;19;159150;-36
2022/04/11 09:08:37;;;;;;;39.40;3.22;;;;;;;20.01;47.52;99861.88;7311575;19;130336;-38
2022/04/11 09:11:03;;;;;;;36.92;3.00;;;;;;;19.99;47.56;99864.63;7308903;19;130857;-37
2022/04/11 09:13:28;;;;;;;13.90;1.67;;;;;;;19.98;47.70;99862.13;7310283;19;154637;-41
2022/04/11 09:15:54;;;;;;;22.70;2.13;;;;;;;19.90;47.39;99848.88;7310548;19;158742;-33
2022/04/11 09:18:19;;;;;;;21.07;1.70;;;;;;;20.13;48.27;99871.34;7309429;19;152064;-34
2022/04/11 09:20:44;;;;;;;33.33;2.90;;;;;;;20.05;48.97;99864.13;7309672;19;154442;-35
2022/04/11 09:23:20;;;;;;;25.80;2.38;;;;;;;19.91;49.78;99845.31;7312579;19;130260;-33
2022/04/11 09:25:46;;;;;;;22.52;2.03;;;;;;;19.99;50.09;99858.56;7311122;19;129025;-35
2022/04/11 09:28:12;;;;;;;25.42;2.03;;;;;;;20.02;49.67;99858.31;7310213;19;159182;-34
2022/04/11 09:30:39;;;;;;;27.48;2.45;;;;;;;19.97;49.97;99855.25;7309851;19;129687;-41
2022/04/11 09:33:07;;;;;;;23.35;2.15;;;;;;;19.82;51.01;99835.59;7311150;19;129033;-35
2022/04/11 09:35:36;;;;;;;37.72;3.22;;;;;;;19.93;50.65;99848.63;7312561;19;130168;-31
2022/04/11 09:38:22;;;;;;;36.97;3.28;;;;;;;19.87;51.68;99839.50;7305087;19;144472;-35
2022/04/11 09:40:54;;;;;;;33.03;3.00;;;;;;;19.97;50.71;99844.81;7309470;19;129112;-37
2022/04/11 09:43:34;;;;;;;26.13;2.22;;;;;;;19.95;51.45;99844.94;7310226;19;129409;-32
2022/04/11 09:46:01;;;;;;;26.20;2.28;;;;;;;19.90;50.88;99848.88;7310519;19;130326;-39
2022/04/11 09:48:32;;;;;;;44.80;4.03;;;;;;;19.69;49.16;99840.97;7307552;19;129933;-36
2022/04/11 09:51:01;;;;;;;16.88;1.70;;;;;;;19.67;49.32;99836.84;7309702;19;129119;-35
2022/04/11 09:53:34;;;;;;;24.67;2.00;;;;;;;19.69;49.11;99845.34;7310651;19;129044;-34
2022/04/11 09:56:08;;;;;;;85.85;6.75;;;;;;;19.78;48.49;99840.25;7295504;19;130246;-41
2022/04/11 09:58:36;;;;;;;38.00;3.30;;;;;;;19.66;48.12;99827.34;7300636;19;131473;-34
2022/04/11 10:01:02;;;;;;;30.77;2.55;;;;;;;19.72;48.09;99825.06;7309269;19;129628;-40
2022/04/11 10:03:29;;;;;;;26.83;2.30;;;;;;;19.77;48.65;99837.72;7311210;19;129633;-33
2022/04/11 10:05:56;;;;;;;9.95;1.02;;;;;;;19.74;48.43;99822.34;7310002;19;130476;-36
2022/04/11 10:08:25;;;;;;;30.05;2.65;;;;;;;19.80;48.01;99835.72;7308284;19;129565;-42
2022/04/11 10:10:51;;;;;;;23.17;1.95;;;;;;;19.84;48.24;99836.31;7309869;19;129052;-36
2022/04/11 10:13:17;;;;;;;38.08;3.03;;;;;;;19.85;48.09;99830.16;7310792;19;130145;-35
2022/04/11 10:15:51;;;;;;;28.85;2.38;;;;;;;19.86;48.14;99821.38;7310295;19;130339;-37
2022/04/11 10:18:35;;;;;;;33.38;2.75;;;;;;;19.89;47.50;99832.38;7309448;19;129161;-35
2022/04/11 10:21:06;;;;;;;23.63;2.15;;;;;;;19.89;47.61;99824.56;7309439;19;130615;-40
2022/04/11 10:23:40;;;;;;;24.83;2.10;;;;;;;20.05;47.73;99816.31;7309969;19;128921;-32
2022/04/11 10:26:17;;;;;;;22.08;1.80;;;;;;;19.99;48.56;99819.41;7310034;19;129573;-36
2022/04/11 10:28:45;;;;;;;27.48;2.30;;;;;;;19.92;49.48;99810.41;7307042;19;131074;-42
2022/04/11 10:31:13;;;;;;;25.05;2.03;;;;;;;19.92;50.21;99815.63;7307347;19;129311;-44
2022/04/11 10:33:55;;;;;;;14.07;1.67;;;;;;;19.95;49.43;99811.00;7307853;19;130809;-32
2022/04/11 10:36:36;;;;;;;36.10;3.03;;;;;;;19.92;51.12;99810.41;7309165;19;130138;-37
2022/04/11 10:39:14;;;;;;;18.05;1.48;;;;;;;19.91;51.57;99814.00;7304924;19;130703;-33
2022/04/11 10:41:55;;;;;;;28.98;2.67;;;;;;;19.90;51.85;99818.38;7311276;19;129167;-32
2022/04/11 10:44:37;;;;;;;37.97;2.90;;;;;;;19.82;51.36;99799.06;7310239;19;129100;-36
2022/04/11 10:47:11;;;;;;;4.30;0.68;;;;;;;19.90;51.11;99805.34;7310028;19;129094;-32
2022/04/11 10:49:48;;;;;;;27.48;2.25;;;;;;;19.92;52.30;99810.41;7312296;19;129707;-38
2022/04/11 10:52:36;;;;;;;44.35;3.78;;;;;;;19.92;51.86;99797.38;7314896;19;130215;-32
2022/04/11 10:55:10;;;;;;;8.07;0.73;;;;;;;19.56;49.07;99782.91;7313695;19;130556;-40
2022/04/11 10:57:41;;;;;;;34.00;2.80;;;;;;;19.70;48.69;99800.06;7315262;19;130642;-39
2022/04/11 11:00:12;;;;;;;22.55;1.88;;;;;;;19.75;48.93;99797.94;7316787;19;130726;-34
2022/04/11 11:02:49;;;;;;;28.70;2.35;;;;;;;19.77;49.24;99801.22;7311129;19;129691;-38
2022/04/11 11:05:36;;;;;;;23.88;2.00;;;;;;;19.75;47.85;99790.91;7316113;19;129336;-40
2022/04/11 11:08:09;;;;;;;19.13;1.48;;;;;;;19.74;48.47;99791.88;7316755;19;130041;-40
2022/04/11 11:10:57;;;;;;;11.40;1.13;;;;;;;19.78;48.03;99787.25;7313592;19;131369;-34
2022/04/11 11:13:34;;;;;;;22.40;1.90;;;;;;;19.77;47.82;99786.41;7313627;19;129219;-40
2022/04/11 11:16:09;;;;;;;8.35;0.82;;;;;;;19.80;47.83;99786.16;7314160;19;153911;-34
2022/04/11 11:18:50;;;;;;;28.35;2.40;;;;;;;19.82;47.84;99778.19;7312603;19;130538;-37